sensor_id;sensor_type;location;lat;lon;timestamp;P1;durP1;ratioP1;P2;durP2;ratioP2
69594;SDS011;56800;52.142;5.364;2024-03-29T00:00:01;8.63;;;1.40;;
69594;SDS011;56800;52.142;5.364;2024-03-29T00:02:28;5.75;;;1.48;;
69594;SDS011;56800;52.142;5.364;2024-03-29T00:04:54;4.13;;;1.00;;
69594;SDS011;56800;52.142;5.364;2024-03-29T00:07:19;9.40;;;1.60;;
69594;SDS011;56800;52.142;5.364;2024-03-29T00:09:45;8.90;;;1.50;;
69594;SDS011;56800;52.142;5.364;2024-03-29T00:12:11;6.70;;;1.23;;
69594;SDS011;56800;52.142;5.364;2024-03-29T00:14:37;6.83;;;1.30;;
69594;SDS011;56800;52.142;5.364;2024-03-29T00:17:02;7.15;;;1.08;;
69594;SDS011;56800;52.142;5.364;2024-03-29T00:19:29;4.40;;;1.00;;
69594;SDS011;56800;52.142;5.364;2024-03-29T00:21:55;8.80;;;1.30;;
69594;SDS011;56800;52.142;5.364;2024-03-29T00:24:21;10.48;;;1.30;;
69594;SDS011;56800;52.142;5.364;2024-03-29T00:26:46;8.43;;;1.40;;
69594;SDS011;56800;52.142;5.364;2024-03-29T00:29:12;11.15;;;1.13;;
69594;SDS011;56800;52.142;5.364;2024-03-29T00:31:38;7.57;;;1.30;;
69594;SDS011;56800;52.142;5.364;2024-03-29T00:34:04;7.25;;;1.20;;
69594;SDS011;56800;52.142;5.364;2024-03-29T00:36:30;7.20;;;1.10;;
69594;SDS011;56800;52.142;5.364;2024-03-29T00:38:55;4.55;;;1.40;;
69594;SDS011;56800;52.142;5.364;2024-03-29T00:41:21;8.50;;;1.23;;
69594;SDS011;56800;52.142;5.364;2024-03-29T00:43:47;8.75;;;0.95;;
69594;SDS011;56800;52.142;5.364;2024-03-29T00:46:14;8.30;;;1.40;;
69594;SDS011;56800;52.142;5.364;2024-03-29T00:48:39;5.13;;;1.13;;
69594;SDS011;56800;52.142;5.364;2024-03-29T00:51:06;6.75;;;1.00;;
69594;SDS011;56800;52.142;5.364;2024-03-29T00:53:32;5.95;;;1.10;;
69594;SDS011;56800;52.142;5.364;2024-03-29T00:55:57;8.18;;;1.33;;
69594;SDS011;56800;52.142;5.364;2024-03-29T00:58:23;5.75;;;1.35;;
69594;SDS011;56800;52.142;5.364;2024-03-29T01:00:49;4.47;;;1.07;;
69594;SDS011;56800;52.142;5.364;2024-03-29T01:03:15;6.15;;;1.10;;
69594;SDS011;56800;52.142;5.364;2024-03-29T01:05:40;5.53;;;1.20;;
69594;SDS011;56800;52.142;5.364;2024-03-29T01:08:06;7.55;;;1.23;;
69594;SDS011;56800;52.142;5.364;2024-03-29T01:10:32;3.87;;;1.03;;
69594;SDS011;56800;52.142;5.364;2024-03-29T01:12:58;7.85;;;1.40;;
69594;SDS011;56800;52.142;5.364;2024-03-29T01:15:24;7.83;;;1.47;;
69594;SDS011;56800;52.142;5.364;2024-03-29T01:17:50;4.63;;;1.23;;
69594;SDS011;56800;52.142;5.364;2024-03-29T01:20:16;5.18;;;1.20;;
69594;SDS011;56800;52.142;5.364;2024-03-29T01:22:42;5.60;;;1.17;;
69594;SDS011;56800;52.142;5.364;2024-03-29T01:25:07;4.93;;;1.30;;
69594;SDS011;56800;52.142;5.364;2024-03-29T01:27:36;6.32;;;0.98;;
69594;SDS011;56800;52.142;5.364;2024-03-29T01:30:02;8.00;;;1.37;;
69594;SDS011;56800;52.142;5.364;2024-03-29T01:32:28;4.03;;;1.20;;
69594;SDS011;56800;52.142;5.364;2024-03-29T01:34:53;3.30;;;1.00;;
69594;SDS011;56800;52.142;5.364;2024-03-29T01:37:19;10.55;;;1.50;;
69594;SDS011;56800;52.142;5.364;2024-03-29T01:39:45;5.50;;;1.23;;
69594;SDS011;56800;52.142;5.364;2024-03-29T01:42:11;5.85;;;1.35;;
69594;SDS011;56800;52.142;5.364;2024-03-29T01:44:37;5.88;;;1.38;;
69594;SDS011;56800;52.142;5.364;2024-03-29T01:47:03;6.60;;;1.00;;
69594;SDS011;56800;52.142;5.364;2024-03-29T01:49:29;3.63;;;1.10;;
69594;SDS011;56800;52.142;5.364;2024-03-29T01:51:55;5.65;;;1.10;;
69594;SDS011;56800;52.142;5.364;2024-03-29T01:54:24;6.90;;;1.35;;
69594;SDS011;56800;52.142;5.364;2024-03-29T01:56:50;4.73;;;1.43;;
69594;SDS011;56800;52.142;5.364;2024-03-29T01:59:16;5.40;;;1.00;;
69594;SDS011;56800;52.142;5.364;2024-03-29T02:01:44;6.90;;;1.33;;
69594;SDS011;56800;52.142;5.364;2024-03-29T02:04:11;4.70;;;1.23;;
69594;SDS011;56800;52.142;5.364;2024-03-29T02:06:40;6.03;;;1.10;;
69594;SDS011;56800;52.142;5.364;2024-03-29T02:09:06;7.60;;;1.07;;
69594;SDS011;56800;52.142;5.364;2024-03-29T02:11:32;7.32;;;1.20;;
69594;SDS011;56800;52.142;5.364;2024-03-29T02:13:59;4.70;;;0.98;;
69594;SDS011;56800;52.142;5.364;2024-03-29T02:16:25;5.90;;;0.93;;
69594;SDS011;56800;52.142;5.364;2024-03-29T02:18:50;4.82;;;1.00;;
69594;SDS011;56800;52.142;5.364;2024-03-29T02:21:16;4.00;;;1.08;;
69594;SDS011;56800;52.142;5.364;2024-03-29T02:23:46;4.37;;;0.90;;
69594;SDS011;56800;52.142;5.364;2024-03-29T02:26:15;6.85;;;1.38;;
69594;SDS011;56800;52.142;5.364;2024-03-29T02:28:41;4.18;;;1.10;;
69594;SDS011;56800;52.142;5.364;2024-03-29T02:31:07;6.40;;;1.50;;
69594;SDS011;56800;52.142;5.364;2024-03-29T02:33:33;3.22;;;1.13;;
69594;SDS011;56800;52.142;5.364;2024-03-29T02:35:59;6.40;;;1.13;;
69594;SDS011;56800;52.142;5.364;2024-03-29T02:38:25;5.13;;;1.17;;
69594;SDS011;56800;52.142;5.364;2024-03-29T02:40:51;3.03;;;1.05;;
69594;SDS011;56800;52.142;5.364;2024-03-29T02:43:16;6.45;;;1.30;;
69594;SDS011;56800;52.142;5.364;2024-03-29T02:45:42;6.57;;;1.08;;
69594;SDS011;56800;52.142;5.364;2024-03-29T02:48:09;11.30;;;1.38;;
69594;SDS011;56800;52.142;5.364;2024-03-29T02:50:34;3.73;;;0.97;;
69594;SDS011;56800;52.142;5.364;2024-03-29T02:53:00;6.72;;;1.60;;
69594;SDS011;56800;52.142;5.364;2024-03-29T02:55:30;5.07;;;1.50;;
69594;SDS011;56800;52.142;5.364;2024-03-29T02:57:56;6.83;;;1.20;;
69594;SDS011;56800;52.142;5.364;2024-03-29T03:00:22;5.53;;;1.30;;
69594;SDS011;56800;52.142;5.364;2024-03-29T03:02:48;6.53;;;0.97;;
69594;SDS011;56800;52.142;5.364;2024-03-29T03:05:13;4.85;;;1.33;;
69594;SDS011;56800;52.142;5.364;2024-03-29T03:07:39;6.80;;;1.10;;
69594;SDS011;56800;52.142;5.364;2024-03-29T03:10:24;5.18;;;1.00;;
69594;SDS011;56800;52.142;5.364;2024-03-29T03:13:08;4.53;;;1.25;;
69594;SDS011;56800;52.142;5.364;2024-03-29T03:15:34;4.87;;;1.00;;
69594;SDS011;56800;52.142;5.364;2024-03-29T03:17:59;7.55;;;1.17;;
69594;SDS011;56800;52.142;5.364;2024-03-29T03:20:25;6.10;;;1.20;;
69594;SDS011;56800;52.142;5.364;2024-03-29T03:22:56;5.07;;;1.00;;
69594;SDS011;56800;52.142;5.364;2024-03-29T03:25:22;6.20;;;1.27;;
69594;SDS011;56800;52.142;5.364;2024-03-29T03:27:49;4.38;;;1.10;;
69594;SDS011;56800;52.142;5.364;2024-03-29T03:30:16;5.80;;;1.40;;
69594;SDS011;56800;52.142;5.364;2024-03-29T03:32:42;4.47;;;0.93;;
69594;SDS011;56800;52.142;5.364;2024-03-29T03:35:08;4.22;;;1.15;;
69594;SDS011;56800;52.142;5.364;2024-03-29T03:37:34;5.60;;;1.17;;
69594;SDS011;56800;52.142;5.364;2024-03-29T03:39:59;4.07;;;1.13;;
69594;SDS011;56800;52.142;5.364;2024-03-29T03:42:25;3.92;;;1.38;;
69594;SDS011;56800;52.142;5.364;2024-03-29T03:44:51;4.07;;;1.00;;
69594;SDS011;56800;52.142;5.364;2024-03-29T03:47:17;6.03;;;1.20;;
69594;SDS011;56800;52.142;5.364;2024-03-29T03:49:43;8.63;;;1.07;;
69594;SDS011;56800;52.142;5.364;2024-03-29T03:52:09;8.07;;;0.90;;
69594;SDS011;56800;52.142;5.364;2024-03-29T03:54:35;3.87;;;0.90;;
69594;SDS011;56800;52.142;5.364;2024-03-29T03:57:00;4.82;;;1.15;;
69594;SDS011;56800;52.142;5.364;2024-03-29T03:59:26;5.03;;;1.30;;
69594;SDS011;56800;52.142;5.364;2024-03-29T04:01:52;5.53;;;1.03;;
69594;SDS011;56800;52.142;5.364;2024-03-29T04:04:19;5.63;;;2.20;;
69594;SDS011;56800;52.142;5.364;2024-03-29T04:06:45;4.65;;;0.90;;
69594;SDS011;56800;52.142;5.364;2024-03-29T04:09:11;6.53;;;1.10;;
69594;SDS011;56800;52.142;5.364;2024-03-29T04:11:41;4.20;;;1.00;;
69594;SDS011;56800;52.142;5.364;2024-03-29T04:14:07;4.00;;;0.98;;
69594;SDS011;56800;52.142;5.364;2024-03-29T04:16:33;5.13;;;1.13;;
69594;SDS011;56800;52.142;5.364;2024-03-29T04:18:59;3.95;;;0.98;;
69594;SDS011;56800;52.142;5.364;2024-03-29T04:21:25;2.22;;;0.80;;
69594;SDS011;56800;52.142;5.364;2024-03-29T04:23:51;5.30;;;1.00;;
69594;SDS011;56800;52.142;5.364;2024-03-29T04:26:17;4.50;;;0.98;;
69594;SDS011;56800;52.142;5.364;2024-03-29T04:28:44;5.50;;;0.82;;
69594;SDS011;56800;52.142;5.364;2024-03-29T04:31:10;4.67;;;1.10;;
69594;SDS011;56800;52.142;5.364;2024-03-29T04:33:36;5.80;;;0.98;;
69594;SDS011;56800;52.142;5.364;2024-03-29T04:36:03;3.45;;;1.02;;
69594;SDS011;56800;52.142;5.364;2024-03-29T04:38:29;2.10;;;0.93;;
69594;SDS011;56800;52.142;5.364;2024-03-29T04:40:56;8.63;;;0.90;;
69594;SDS011;56800;52.142;5.364;2024-03-29T04:43:24;3.38;;;0.98;;
69594;SDS011;56800;52.142;5.364;2024-03-29T04:46:00;4.65;;;1.00;;
69594;SDS011;56800;52.142;5.364;2024-03-29T04:48:29;4.55;;;0.77;;
69594;SDS011;56800;52.142;5.364;2024-03-29T04:50:56;4.53;;;1.00;;
69594;SDS011;56800;52.142;5.364;2024-03-29T04:53:22;3.50;;;0.95;;
69594;SDS011;56800;52.142;5.364;2024-03-29T04:55:53;2.83;;;0.80;;
69594;SDS011;56800;52.142;5.364;2024-03-29T04:58:22;2.35;;;1.02;;
69594;SDS011;56800;52.142;5.364;2024-03-29T05:00:48;2.33;;;0.77;;
69594;SDS011;56800;52.142;5.364;2024-03-29T05:03:19;3.33;;;0.80;;
69594;SDS011;56800;52.142;5.364;2024-03-29T05:05:46;5.93;;;0.73;;
69594;SDS011;56800;52.142;5.364;2024-03-29T05:08:12;1.65;;;0.80;;
69594;SDS011;56800;52.142;5.364;2024-03-29T05:10:39;1.50;;;0.60;;
69594;SDS011;56800;52.142;5.364;2024-03-29T05:13:05;2.00;;;0.70;;
69594;SDS011;56800;52.142;5.364;2024-03-29T05:15:31;2.05;;;0.70;;
69594;SDS011;56800;52.142;5.364;2024-03-29T05:17:57;2.00;;;0.90;;
69594;SDS011;56800;52.142;5.364;2024-03-29T05:20:23;2.53;;;0.77;;
69594;SDS011;56800;52.142;5.364;2024-03-29T05:22:49;3.08;;;0.50;;
69594;SDS011;56800;52.142;5.364;2024-03-29T05:25:15;3.90;;;0.93;;
69594;SDS011;56800;52.142;5.364;2024-03-29T05:27:41;2.85;;;0.88;;
69594;SDS011;56800;52.142;5.364;2024-03-29T05:30:06;2.40;;;0.95;;
69594;SDS011;56800;52.142;5.364;2024-03-29T05:32:35;1.30;;;0.70;;
69594;SDS011;56800;52.142;5.364;2024-03-29T05:35:01;2.53;;;0.90;;
69594;SDS011;56800;52.142;5.364;2024-03-29T05:37:27;2.17;;;0.88;;
69594;SDS011;56800;52.142;5.364;2024-03-29T05:39:53;2.58;;;0.82;;
69594;SDS011;56800;52.142;5.364;2024-03-29T05:42:29;2.57;;;0.77;;
69594;SDS011;56800;52.142;5.364;2024-03-29T05:44:55;3.92;;;1.08;;
69594;SDS011;56800;52.142;5.364;2024-03-29T05:47:21;2.47;;;0.80;;
69594;SDS011;56800;52.142;5.364;2024-03-29T05:49:47;2.97;;;0.73;;
69594;SDS011;56800;52.142;5.364;2024-03-29T05:52:13;5.05;;;0.98;;
69594;SDS011;56800;52.142;5.364;2024-03-29T05:54:40;3.40;;;1.00;;
69594;SDS011;56800;52.142;5.364;2024-03-29T05:57:06;1.73;;;0.70;;
69594;SDS011;56800;52.142;5.364;2024-03-29T05:59:33;4.90;;;1.10;;
69594;SDS011;56800;52.142;5.364;2024-03-29T06:01:59;3.35;;;1.38;;
69594;SDS011;56800;52.142;5.364;2024-03-29T06:04:25;4.00;;;1.00;;
69594;SDS011;56800;52.142;5.364;2024-03-29T06:07:03;3.10;;;0.90;;
69594;SDS011;56800;52.142;5.364;2024-03-29T06:09:29;2.10;;;0.90;;
69594;SDS011;56800;52.142;5.364;2024-03-29T06:11:56;5.00;;;1.03;;
69594;SDS011;56800;52.142;5.364;2024-03-29T06:14:22;4.85;;;0.95;;
69594;SDS011;56800;52.142;5.364;2024-03-29T06:17:07;3.90;;;0.90;;
69594;SDS011;56800;52.142;5.364;2024-03-29T06:19:52;4.00;;;0.93;;
69594;SDS011;56800;52.142;5.364;2024-03-29T06:22:24;2.67;;;0.82;;
69594;SDS011;56800;52.142;5.364;2024-03-29T06:24:50;2.87;;;0.80;;
69594;SDS011;56800;52.142;5.364;2024-03-29T06:27:19;6.00;;;1.23;;
69594;SDS011;56800;52.142;5.364;2024-03-29T06:29:48;1.88;;;0.80;;
69594;SDS011;56800;52.142;5.364;2024-03-29T06:32:17;3.25;;;0.90;;
69594;SDS011;56800;52.142;5.364;2024-03-29T06:34:46;4.53;;;1.00;;
69594;SDS011;56800;52.142;5.364;2024-03-29T06:37:12;4.47;;;0.90;;
69594;SDS011;56800;52.142;5.364;2024-03-29T06:39:38;3.03;;;1.00;;
69594;SDS011;56800;52.142;5.364;2024-03-29T06:42:04;6.57;;;1.00;;
69594;SDS011;56800;52.142;5.364;2024-03-29T06:44:33;3.75;;;0.90;;
69594;SDS011;56800;52.142;5.364;2024-03-29T06:47:00;2.83;;;1.05;;
69594;SDS011;56800;52.142;5.364;2024-03-29T06:49:26;1.63;;;0.80;;
69594;SDS011;56800;52.142;5.364;2024-03-29T06:51:52;2.67;;;1.08;;
69594;SDS011;56800;52.142;5.364;2024-03-29T06:54:19;2.95;;;0.90;;
69594;SDS011;56800;52.142;5.364;2024-03-29T06:56:49;4.82;;;1.00;;
69594;SDS011;56800;52.142;5.364;2024-03-29T06:59:15;2.93;;;0.90;;
69594;SDS011;56800;52.142;5.364;2024-03-29T07:01:41;2.55;;;0.70;;
69594;SDS011;56800;52.142;5.364;2024-03-29T07:04:07;1.77;;;0.97;;
69594;SDS011;56800;52.142;5.364;2024-03-29T07:06:33;3.65;;;1.00;;
69594;SDS011;56800;52.142;5.364;2024-03-29T07:08:59;3.00;;;0.85;;
69594;SDS011;56800;52.142;5.364;2024-03-29T07:11:24;5.90;;;0.80;;
69594;SDS011;56800;52.142;5.364;2024-03-29T07:13:50;2.35;;;0.88;;
69594;SDS011;56800;52.142;5.364;2024-03-29T07:16:16;3.40;;;0.97;;
69594;SDS011;56800;52.142;5.364;2024-03-29T07:18:42;3.45;;;0.88;;
69594;SDS011;56800;52.142;5.364;2024-03-29T07:21:07;4.10;;;0.90;;
69594;SDS011;56800;52.142;5.364;2024-03-29T07:23:33;3.15;;;0.95;;
69594;SDS011;56800;52.142;5.364;2024-03-29T07:26:03;2.28;;;0.80;;
69594;SDS011;56800;52.142;5.364;2024-03-29T07:28:30;2.72;;;1.20;;
69594;SDS011;56800;52.142;5.364;2024-03-29T07:30:56;2.47;;;1.00;;
69594;SDS011;56800;52.142;5.364;2024-03-29T07:33:23;2.47;;;1.00;;
69594;SDS011;56800;52.142;5.364;2024-03-29T07:35:52;3.38;;;1.10;;
69594;SDS011;56800;52.142;5.364;2024-03-29T07:38:19;1.80;;;0.93;;
69594;SDS011;56800;52.142;5.364;2024-03-29T07:40:46;3.33;;;1.10;;
69594;SDS011;56800;52.142;5.364;2024-03-29T07:43:13;2.28;;;0.98;;
69594;SDS011;56800;52.142;5.364;2024-03-29T07:45:42;1.70;;;1.00;;
69594;SDS011;56800;52.142;5.364;2024-03-29T07:48:11;3.35;;;0.90;;
69594;SDS011;56800;52.142;5.364;2024-03-29T07:50:41;2.57;;;1.00;;
69594;SDS011;56800;52.142;5.364;2024-03-29T07:53:08;2.75;;;0.77;;
69594;SDS011;56800;52.142;5.364;2024-03-29T07:55:38;2.10;;;0.98;;
69594;SDS011;56800;52.142;5.364;2024-03-29T07:58:06;2.35;;;1.08;;
69594;SDS011;56800;52.142;5.364;2024-03-29T08:00:34;3.15;;;0.80;;
69594;SDS011;56800;52.142;5.364;2024-03-29T08:03:00;6.03;;;1.03;;
69594;SDS011;56800;52.142;5.364;2024-03-29T08:05:26;2.50;;;1.33;;
69594;SDS011;56800;52.142;5.364;2024-03-29T08:07:53;3.10;;;1.08;;
69594;SDS011;56800;52.142;5.364;2024-03-29T08:10:20;3.75;;;0.90;;
69594;SDS011;56800;52.142;5.364;2024-03-29T08:12:46;4.47;;;1.10;;
69594;SDS011;56800;52.142;5.364;2024-03-29T08:15:11;2.33;;;1.10;;
69594;SDS011;56800;52.142;5.364;2024-03-29T08:17:37;1.80;;;0.88;;
69594;SDS011;56800;52.142;5.364;2024-03-29T08:20:03;4.38;;;0.90;;
69594;SDS011;56800;52.142;5.364;2024-03-29T08:22:29;1.98;;;1.00;;
69594;SDS011;56800;52.142;5.364;2024-03-29T08:24:58;1.50;;;0.93;;
69594;SDS011;56800;52.142;5.364;2024-03-29T08:27:25;3.17;;;1.02;;
69594;SDS011;56800;52.142;5.364;2024-03-29T08:29:52;4.32;;;0.90;;
69594;SDS011;56800;52.142;5.364;2024-03-29T08:32:18;2.57;;;1.03;;
69594;SDS011;56800;52.142;5.364;2024-03-29T08:34:44;2.38;;;1.40;;
69594;SDS011;56800;52.142;5.364;2024-03-29T08:37:09;4.57;;;1.85;;
69594;SDS011;56800;52.142;5.364;2024-03-29T08:39:35;1.97;;;1.00;;
69594;SDS011;56800;52.142;5.364;2024-03-29T08:42:03;1.90;;;0.90;;
69594;SDS011;56800;52.142;5.364;2024-03-29T08:44:36;1.27;;;0.80;;
69594;SDS011;56800;52.142;5.364;2024-03-29T08:47:03;1.58;;;0.90;;
69594;SDS011;56800;52.142;5.364;2024-03-29T08:49:29;2.70;;;1.23;;
69594;SDS011;56800;52.142;5.364;2024-03-29T08:51:55;2.85;;;0.80;;
69594;SDS011;56800;52.142;5.364;2024-03-29T08:54:24;5.53;;;1.85;;
69594;SDS011;56800;52.142;5.364;2024-03-29T08:56:50;0.70;;;0.57;;
69594;SDS011;56800;52.142;5.364;2024-03-29T08:59:16;2.10;;;0.93;;
69594;SDS011;56800;52.142;5.364;2024-03-29T09:01:43;1.88;;;0.77;;
69594;SDS011;56800;52.142;5.364;2024-03-29T09:04:10;3.30;;;0.85;;
69594;SDS011;56800;52.142;5.364;2024-03-29T09:06:37;3.57;;;1.00;;
69594;SDS011;56800;52.142;5.364;2024-03-29T09:09:06;1.75;;;0.73;;
69594;SDS011;56800;52.142;5.364;2024-03-29T09:11:33;2.70;;;0.80;;
69594;SDS011;56800;52.142;5.364;2024-03-29T09:13:59;2.30;;;0.93;;
69594;SDS011;56800;52.142;5.364;2024-03-29T09:16:26;2.10;;;0.90;;
69594;SDS011;56800;52.142;5.364;2024-03-29T09:18:54;1.37;;;1.00;;
69594;SDS011;56800;52.142;5.364;2024-03-29T09:21:20;2.83;;;1.15;;
69594;SDS011;56800;52.142;5.364;2024-03-29T09:23:46;2.05;;;0.90;;
69594;SDS011;56800;52.142;5.364;2024-03-29T09:29:06;1.98;;;0.90;;
69594;SDS011;56800;52.142;5.364;2024-03-29T09:31:32;2.17;;;0.80;;
69594;SDS011;56800;52.142;5.364;2024-03-29T09:33:59;2.42;;;1.02;;
69594;SDS011;56800;52.142;5.364;2024-03-29T09:36:25;2.47;;;1.00;;
69594;SDS011;56800;52.142;5.364;2024-03-29T09:38:51;3.57;;;1.37;;
69594;SDS011;56800;52.142;5.364;2024-03-29T09:41:18;2.33;;;1.08;;
69594;SDS011;56800;52.142;5.364;2024-03-29T09:43:45;6.82;;;1.50;;
69594;SDS011;56800;52.142;5.364;2024-03-29T09:46:15;2.42;;;1.05;;
69594;SDS011;56800;52.142;5.364;2024-03-29T09:48:42;3.70;;;1.37;;
69594;SDS011;56800;52.142;5.364;2024-03-29T09:51:11;4.50;;;1.20;;
69594;SDS011;56800;52.142;5.364;2024-03-29T09:53:41;3.78;;;1.17;;
69594;SDS011;56800;52.142;5.364;2024-03-29T09:56:10;3.53;;;0.80;;
69594;SDS011;56800;52.142;5.364;2024-03-29T09:58:37;13.93;;;2.33;;
69594;SDS011;56800;52.142;5.364;2024-03-29T10:01:03;3.83;;;1.50;;
69594;SDS011;56800;52.142;5.364;2024-03-29T10:03:31;2.28;;;1.10;;
69594;SDS011;56800;52.142;5.364;2024-03-29T10:06:00;2.47;;;1.02;;
69594;SDS011;56800;52.142;5.364;2024-03-29T10:08:27;5.07;;;1.40;;
69594;SDS011;56800;52.142;5.364;2024-03-29T10:10:58;3.30;;;1.38;;
69594;SDS011;56800;52.142;5.364;2024-03-29T10:13:24;6.97;;;1.60;;
69594;SDS011;56800;52.142;5.364;2024-03-29T10:15:51;4.15;;;1.27;;
69594;SDS011;56800;52.142;5.364;2024-03-29T10:18:20;3.70;;;1.20;;
69594;SDS011;56800;52.142;5.364;2024-03-29T10:21:04;4.95;;;1.30;;
69594;SDS011;56800;52.142;5.364;2024-03-29T10:23:33;4.25;;;1.42;;
69594;SDS011;56800;52.142;5.364;2024-03-29T10:26:02;12.37;;;1.50;;
69594;SDS011;56800;52.142;5.364;2024-03-29T10:28:32;2.45;;;1.40;;
69594;SDS011;56800;52.142;5.364;2024-03-29T10:31:03;5.95;;;1.35;;
69594;SDS011;56800;52.142;5.364;2024-03-29T10:33:30;3.75;;;1.30;;
69594;SDS011;56800;52.142;5.364;2024-03-29T10:35:58;5.03;;;1.60;;
69594;SDS011;56800;52.142;5.364;2024-03-29T10:38:25;3.10;;;1.50;;
69594;SDS011;56800;52.142;5.364;2024-03-29T10:40:52;4.78;;;1.38;;
69594;SDS011;56800;52.142;5.364;2024-03-29T10:43:18;3.85;;;1.48;;
69594;SDS011;56800;52.142;5.364;2024-03-29T10:45:48;5.80;;;1.38;;
69594;SDS011;56800;52.142;5.364;2024-03-29T10:48:20;3.33;;;1.40;;
69594;SDS011;56800;52.142;5.364;2024-03-29T10:50:47;3.57;;;1.70;;
69594;SDS011;56800;52.142;5.364;2024-03-29T10:53:16;8.48;;;1.25;;
69594;SDS011;56800;52.142;5.364;2024-03-29T10:55:42;2.33;;;1.25;;
69594;SDS011;56800;52.142;5.364;2024-03-29T10:58:11;2.78;;;1.20;;
69594;SDS011;56800;52.142;5.364;2024-03-29T11:00:41;2.80;;;1.60;;
69594;SDS011;56800;52.142;5.364;2024-03-29T11:03:23;2.70;;;1.30;;
69594;SDS011;56800;52.142;5.364;2024-03-29T11:06:02;3.55;;;1.60;;
69594;SDS011;56800;52.142;5.364;2024-03-29T11:08:31;2.55;;;1.42;;
69594;SDS011;56800;52.142;5.364;2024-03-29T11:11:00;2.58;;;1.75;;
69594;SDS011;56800;52.142;5.364;2024-03-29T11:13:32;3.50;;;1.48;;
69594;SDS011;56800;52.142;5.364;2024-03-29T11:16:05;3.30;;;1.60;;
69594;SDS011;56800;52.142;5.364;2024-03-29T11:18:30;3.88;;;1.70;;
69594;SDS011;56800;52.142;5.364;2024-03-29T11:20:57;3.25;;;1.77;;
69594;SDS011;56800;52.142;5.364;2024-03-29T11:23:26;3.95;;;1.65;;
69594;SDS011;56800;52.142;5.364;2024-03-29T11:25:53;2.57;;;1.40;;
69594;SDS011;56800;52.142;5.364;2024-03-29T11:28:23;3.15;;;1.48;;
69594;SDS011;56800;52.142;5.364;2024-03-29T11:30:52;2.95;;;1.30;;
69594;SDS011;56800;52.142;5.364;2024-03-29T11:33:25;2.42;;;1.70;;
69594;SDS011;56800;52.142;5.364;2024-03-29T11:35:52;3.38;;;1.60;;
69594;SDS011;56800;52.142;5.364;2024-03-29T11:38:18;2.50;;;1.67;;
69594;SDS011;56800;52.142;5.364;2024-03-29T11:41:02;1.55;;;1.20;;
69594;SDS011;56800;52.142;5.364;2024-03-29T11:43:31;4.25;;;1.42;;
69594;SDS011;56800;52.142;5.364;2024-03-29T11:45:59;2.00;;;1.30;;
69594;SDS011;56800;52.142;5.364;2024-03-29T11:48:29;3.55;;;1.30;;
69594;SDS011;56800;52.142;5.364;2024-03-29T11:50:59;2.55;;;1.30;;
69594;SDS011;56800;52.142;5.364;2024-03-29T11:53:26;2.90;;;1.20;;
69594;SDS011;56800;52.142;5.364;2024-03-29T11:55:53;2.25;;;1.10;;
69594;SDS011;56800;52.142;5.364;2024-03-29T11:58:20;2.40;;;1.10;;
69594;SDS011;56800;52.142;5.364;2024-03-29T12:00:49;3.70;;;1.50;;
69594;SDS011;56800;52.142;5.364;2024-03-29T12:03:16;2.78;;;1.42;;
69594;SDS011;56800;52.142;5.364;2024-03-29T12:05:46;3.97;;;1.50;;
69594;SDS011;56800;52.142;5.364;2024-03-29T12:08:14;2.78;;;1.40;;
69594;SDS011;56800;52.142;5.364;2024-03-29T12:10:40;3.87;;;1.50;;
69594;SDS011;56800;52.142;5.364;2024-03-29T12:13:06;1.95;;;1.10;;
69594;SDS011;56800;52.142;5.364;2024-03-29T12:15:33;3.75;;;1.77;;
69594;SDS011;56800;52.142;5.364;2024-03-29T12:18:03;3.00;;;1.50;;
69594;SDS011;56800;52.142;5.364;2024-03-29T12:20:37;2.72;;;1.33;;
69594;SDS011;56800;52.142;5.364;2024-03-29T12:23:04;3.23;;;1.40;;
69594;SDS011;56800;52.142;5.364;2024-03-29T12:25:38;2.20;;;1.10;;
69594;SDS011;56800;52.142;5.364;2024-03-29T12:28:05;3.45;;;1.67;;
69594;SDS011;56800;52.142;5.364;2024-03-29T12:30:32;4.70;;;1.98;;
69594;SDS011;56800;52.142;5.364;2024-03-29T12:35:36;3.87;;;1.80;;
69594;SDS011;56800;52.142;5.364;2024-03-29T12:38:03;3.40;;;2.13;;
69594;SDS011;56800;52.142;5.364;2024-03-29T12:40:30;4.50;;;2.10;;
69594;SDS011;56800;52.142;5.364;2024-03-29T12:43:02;2.90;;;1.40;;
69594;SDS011;56800;52.142;5.364;2024-03-29T12:45:30;4.18;;;1.83;;
69594;SDS011;56800;52.142;5.364;2024-03-29T12:47:56;2.67;;;1.40;;
69594;SDS011;56800;52.142;5.364;2024-03-29T12:50:25;3.50;;;1.83;;
69594;SDS011;56800;52.142;5.364;2024-03-29T12:52:57;4.97;;;1.90;;
69594;SDS011;56800;52.142;5.364;2024-03-29T12:55:24;5.70;;;1.95;;
69594;SDS011;56800;52.142;5.364;2024-03-29T12:57:55;3.13;;;1.87;;
69594;SDS011;56800;52.142;5.364;2024-03-29T13:00:22;3.83;;;1.90;;
69594;SDS011;56800;52.142;5.364;2024-03-29T13:02:48;4.75;;;2.40;;
69594;SDS011;56800;52.142;5.364;2024-03-29T13:05:15;5.03;;;2.42;;
69594;SDS011;56800;52.142;5.364;2024-03-29T13:07:41;3.65;;;2.50;;
69594;SDS011;56800;52.142;5.364;2024-03-29T13:10:19;4.90;;;2.30;;
69594;SDS011;56800;52.142;5.364;2024-03-29T13:12:47;5.68;;;2.65;;
69594;SDS011;56800;52.142;5.364;2024-03-29T13:15:17;5.05;;;2.60;;
69594;SDS011;56800;52.142;5.364;2024-03-29T13:17:51;4.22;;;2.50;;
69594;SDS011;56800;52.142;5.364;2024-03-29T13:20:18;3.95;;;2.60;;
69594;SDS011;56800;52.142;5.364;2024-03-29T13:22:45;5.07;;;2.20;;
69594;SDS011;56800;52.142;5.364;2024-03-29T13:25:20;6.88;;;2.42;;
69594;SDS011;56800;52.142;5.364;2024-03-29T13:27:48;3.78;;;2.05;;
69594;SDS011;56800;52.142;5.364;2024-03-29T13:30:18;3.10;;;2.00;;
69594;SDS011;56800;52.142;5.364;2024-03-29T13:32:45;2.42;;;1.95;;
69594;SDS011;56800;52.142;5.364;2024-03-29T13:35:11;3.20;;;1.80;;
69594;SDS011;56800;52.142;5.364;2024-03-29T13:37:38;3.95;;;1.95;;
69594;SDS011;56800;52.142;5.364;2024-03-29T13:40:06;4.15;;;1.85;;
69594;SDS011;56800;52.142;5.364;2024-03-29T13:42:32;3.90;;;1.90;;
69594;SDS011;56800;52.142;5.364;2024-03-29T13:44:58;3.75;;;2.05;;
69594;SDS011;56800;52.142;5.364;2024-03-29T13:47:24;6.45;;;2.30;;
69594;SDS011;56800;52.142;5.364;2024-03-29T13:49:50;4.00;;;2.10;;
69594;SDS011;56800;52.142;5.364;2024-03-29T13:52:18;3.38;;;2.08;;
69594;SDS011;56800;52.142;5.364;2024-03-29T13:54:45;3.00;;;1.80;;
69594;SDS011;56800;52.142;5.364;2024-03-29T13:57:12;3.60;;;1.75;;
69594;SDS011;56800;52.142;5.364;2024-03-29T13:59:41;3.20;;;1.70;;
69594;SDS011;56800;52.142;5.364;2024-03-29T14:02:12;13.40;;;2.05;;
69594;SDS011;56800;52.142;5.364;2024-03-29T14:04:39;3.42;;;1.95;;
69594;SDS011;56800;52.142;5.364;2024-03-29T14:07:06;3.03;;;1.60;;
69594;SDS011;56800;52.142;5.364;2024-03-29T14:09:36;3.55;;;1.40;;
69594;SDS011;56800;52.142;5.364;2024-03-29T14:12:03;3.40;;;1.60;;
69594;SDS011;56800;52.142;5.364;2024-03-29T14:14:30;2.83;;;1.42;;
69594;SDS011;56800;52.142;5.364;2024-03-29T14:16:56;3.15;;;1.63;;
69594;SDS011;56800;52.142;5.364;2024-03-29T14:19:22;3.38;;;1.80;;
69594;SDS011;56800;52.142;5.364;2024-03-29T14:21:48;6.22;;;1.83;;
69594;SDS011;56800;52.142;5.364;2024-03-29T14:24:13;2.72;;;1.60;;
69594;SDS011;56800;52.142;5.364;2024-03-29T14:26:40;3.67;;;1.55;;
69594;SDS011;56800;52.142;5.364;2024-03-29T14:29:12;1.80;;;1.10;;
69594;SDS011;56800;52.142;5.364;2024-03-29T14:31:40;4.03;;;1.52;;
69594;SDS011;56800;52.142;5.364;2024-03-29T14:34:05;3.90;;;1.20;;
69594;SDS011;56800;52.142;5.364;2024-03-29T14:36:31;3.83;;;1.55;;
69594;SDS011;56800;52.142;5.364;2024-03-29T14:38:58;3.33;;;1.30;;
69594;SDS011;56800;52.142;5.364;2024-03-29T14:41:26;2.63;;;1.30;;
69594;SDS011;56800;52.142;5.364;2024-03-29T14:43:53;3.15;;;1.17;;
69594;SDS011;56800;52.142;5.364;2024-03-29T14:46:22;1.40;;;0.80;;
69594;SDS011;56800;52.142;5.364;2024-03-29T14:48:48;4.97;;;1.08;;
69594;SDS011;56800;52.142;5.364;2024-03-29T14:51:15;5.70;;;1.20;;
69594;SDS011;56800;52.142;5.364;2024-03-29T14:53:41;2.10;;;1.10;;